sensor_id;sensor_type;location;lat;lon;timestamp;P1;durP1;ratioP1;P2;durP2;ratioP2
705;SDS011;21234;48.690;9.016;2024-01-11T00:00:11;36.73;;;19.33;;
705;SDS011;21234;48.690;9.016;2024-01-11T00:02:38;32.47;;;19.03;;
705;SDS011;21234;48.690;9.016;2024-01-11T00:05:06;32.07;;;20.17;;
705;SDS011;21234;48.690;9.016;2024-01-11T00:07:34;27.90;;;17.67;;
705;SDS011;21234;48.690;9.016;2024-01-11T00:10:01;28.50;;;18.10;;
705;SDS011;21234;48.690;9.016;2024-01-11T00:12:28;37.93;;;20.63;;
705;SDS011;21234;48.690;9.016;2024-01-11T00:14:56;33.10;;;18.87;;
705;SDS011;21234;48.690;9.016;2024-01-11T00:17:24;27.33;;;18.23;;
705;SDS011;21234;48.690;9.016;2024-01-11T00:19:51;35.57;;;18.83;;
705;SDS011;21234;48.690;9.016;2024-01-11T00:22:19;34.20;;;20.00;;
705;SDS011;21234;48.690;9.016;2024-01-11T00:24:46;28.87;;;19.20;;
705;SDS011;21234;48.690;9.016;2024-01-11T00:27:13;32.23;;;18.87;;
705;SDS011;21234;48.690;9.016;2024-01-11T00:29:39;32.47;;;18.90;;
705;SDS011;21234;48.690;9.016;2024-01-11T00:32:06;33.33;;;18.57;;
705;SDS011;21234;48.690;9.016;2024-01-11T00:34:33;31.80;;;17.50;;
705;SDS011;21234;48.690;9.016;2024-01-11T00:37:01;26.40;;;18.50;;
705;SDS011;21234;48.690;9.016;2024-01-11T00:39:29;31.70;;;17.40;;
705;SDS011;21234;48.690;9.016;2024-01-11T00:41:55;37.10;;;20.47;;
705;SDS011;21234;48.690;9.016;2024-01-11T00:44:22;34.67;;;19.33;;
705;SDS011;21234;48.690;9.016;2024-01-11T00:46:49;37.57;;;20.33;;
705;SDS011;21234;48.690;9.016;2024-01-11T00:49:15;37.80;;;18.60;;
705;SDS011;21234;48.690;9.016;2024-01-11T00:51:42;31.00;;;18.53;;
705;SDS011;21234;48.690;9.016;2024-01-11T00:54:09;35.97;;;20.67;;
705;SDS011;21234;48.690;9.016;2024-01-11T00:56:37;42.90;;;19.50;;
705;SDS011;21234;48.690;9.016;2024-01-11T00:59:04;27.10;;;16.30;;
705;SDS011;21234;48.690;9.016;2024-01-11T01:01:31;33.07;;;19.37;;
705;SDS011;21234;48.690;9.016;2024-01-11T01:03:57;29.13;;;17.93;;
705;SDS011;21234;48.690;9.016;2024-01-11T01:06:25;31.53;;;17.80;;
705;SDS011;21234;48.690;9.016;2024-01-11T01:08:52;35.80;;;18.27;;
705;SDS011;21234;48.690;9.016;2024-01-11T01:11:19;33.17;;;20.03;;
705;SDS011;21234;48.690;9.016;2024-01-11T01:13:47;33.90;;;16.97;;
705;SDS011;21234;48.690;9.016;2024-01-11T01:16:14;26.10;;;17.60;;
705;SDS011;21234;48.690;9.016;2024-01-11T01:18:42;39.50;;;19.73;;
705;SDS011;21234;48.690;9.016;2024-01-11T01:21:09;31.03;;;17.27;;
705;SDS011;21234;48.690;9.016;2024-01-11T01:23:36;29.03;;;17.50;;
705;SDS011;21234;48.690;9.016;2024-01-11T01:26:03;32.33;;;18.47;;
705;SDS011;21234;48.690;9.016;2024-01-11T01:28:29;35.80;;;17.87;;
705;SDS011;21234;48.690;9.016;2024-01-11T01:30:57;34.63;;;19.90;;
705;SDS011;21234;48.690;9.016;2024-01-11T01:33:24;25.80;;;15.67;;
705;SDS011;21234;48.690;9.016;2024-01-11T01:35:51;31.27;;;17.93;;
705;SDS011;21234;48.690;9.016;2024-01-11T01:38:18;38.50;;;19.97;;
705;SDS011;21234;48.690;9.016;2024-01-11T01:40:44;37.03;;;18.00;;
705;SDS011;21234;48.690;9.016;2024-01-11T01:43:11;29.90;;;18.97;;
705;SDS011;21234;48.690;9.016;2024-01-11T01:45:39;23.00;;;15.93;;
705;SDS011;21234;48.690;9.016;2024-01-11T01:48:07;30.07;;;19.40;;
705;SDS011;21234;48.690;9.016;2024-01-11T01:50:34;38.20;;;19.07;;
705;SDS011;21234;48.690;9.016;2024-01-11T01:53:01;32.10;;;17.63;;
705;SDS011;21234;48.690;9.016;2024-01-11T01:55:28;30.17;;;16.57;;
705;SDS011;21234;48.690;9.016;2024-01-11T01:57:55;34.37;;;18.97;;
705;SDS011;21234;48.690;9.016;2024-01-11T02:00:24;31.60;;;18.17;;
705;SDS011;21234;48.690;9.016;2024-01-11T02:02:52;37.63;;;19.27;;
705;SDS011;21234;48.690;9.016;2024-01-11T02:05:21;28.20;;;16.43;;
705;SDS011;21234;48.690;9.016;2024-01-11T02:07:48;27.47;;;15.90;;
705;SDS011;21234;48.690;9.016;2024-01-11T02:10:14;25.87;;;15.73;;
705;SDS011;21234;48.690;9.016;2024-01-11T02:12:42;34.73;;;17.60;;
705;SDS011;21234;48.690;9.016;2024-01-11T02:15:08;32.13;;;17.60;;
705;SDS011;21234;48.690;9.016;2024-01-11T02:17:35;42.00;;;19.00;;
705;SDS011;21234;48.690;9.016;2024-01-11T02:20:02;23.40;;;15.50;;
705;SDS011;21234;48.690;9.016;2024-01-11T02:22:32;28.50;;;17.07;;
705;SDS011;21234;48.690;9.016;2024-01-11T02:25:03;27.80;;;16.50;;
705;SDS011;21234;48.690;9.016;2024-01-11T02:27:30;27.33;;;17.90;;
705;SDS011;21234;48.690;9.016;2024-01-11T02:29:57;28.83;;;17.23;;
705;SDS011;21234;48.690;9.016;2024-01-11T02:32:23;38.67;;;18.17;;
705;SDS011;21234;48.690;9.016;2024-01-11T02:34:50;39.17;;;18.27;;
705;SDS011;21234;48.690;9.016;2024-01-11T02:37:17;44.00;;;21.70;;
705;SDS011;21234;48.690;9.016;2024-01-11T02:39:45;63.90;;;28.60;;
705;SDS011;21234;48.690;9.016;2024-01-11T02:42:13;75.07;;;33.90;;
705;SDS011;21234;48.690;9.016;2024-01-11T02:44:40;41.03;;;24.93;;
705;SDS011;21234;48.690;9.016;2024-01-11T02:47:07;35.40;;;21.67;;
705;SDS011;21234;48.690;9.016;2024-01-11T02:49:34;33.10;;;18.10;;
705;SDS011;21234;48.690;9.016;2024-01-11T02:52:01;34.43;;;18.73;;
705;SDS011;21234;48.690;9.016;2024-01-11T02:54:27;29.10;;;19.33;;
705;SDS011;21234;48.690;9.016;2024-01-11T02:56:54;33.03;;;18.37;;
705;SDS011;21234;48.690;9.016;2024-01-11T02:59:23;35.67;;;18.83;;
705;SDS011;21234;48.690;9.016;2024-01-11T03:01:50;40.97;;;22.63;;
705;SDS011;21234;48.690;9.016;2024-01-11T03:04:17;41.90;;;23.50;;
705;SDS011;21234;48.690;9.016;2024-01-11T03:06:43;40.60;;;20.60;;
705;SDS011;21234;48.690;9.016;2024-01-11T03:09:10;36.80;;;18.60;;
705;SDS011;21234;48.690;9.016;2024-01-11T03:11:37;38.67;;;21.20;;
705;SDS011;21234;48.690;9.016;2024-01-11T03:14:03;35.43;;;19.37;;
705;SDS011;21234;48.690;9.016;2024-01-11T03:16:32;34.00;;;18.30;;
705;SDS011;21234;48.690;9.016;2024-01-11T03:18:59;37.13;;;19.97;;
705;SDS011;21234;48.690;9.016;2024-01-11T03:21:26;34.90;;;20.60;;
705;SDS011;21234;48.690;9.016;2024-01-11T03:23:52;36.73;;;20.63;;
705;SDS011;21234;48.690;9.016;2024-01-11T03:26:19;34.60;;;18.67;;
705;SDS011;21234;48.690;9.016;2024-01-11T03:28:46;32.23;;;18.67;;
705;SDS011;21234;48.690;9.016;2024-01-11T03:31:13;31.57;;;17.27;;
705;SDS011;21234;48.690;9.016;2024-01-11T03:33:41;34.90;;;18.37;;
705;SDS011;21234;48.690;9.016;2024-01-11T03:36:08;37.53;;;18.57;;
705;SDS011;21234;48.690;9.016;2024-01-11T03:38:35;30.03;;;17.50;;
705;SDS011;21234;48.690;9.016;2024-01-11T03:41:02;34.70;;;18.17;;
705;SDS011;21234;48.690;9.016;2024-01-11T03:43:33;30.33;;;17.37;;
705;SDS011;21234;48.690;9.016;2024-01-11T03:45:59;34.20;;;17.97;;
705;SDS011;21234;48.690;9.016;2024-01-11T03:48:26;32.30;;;16.77;;
705;SDS011;21234;48.690;9.016;2024-01-11T03:50:54;33.77;;;18.00;;
705;SDS011;21234;48.690;9.016;2024-01-11T03:53:21;31.07;;;17.60;;
705;SDS011;21234;48.690;9.016;2024-01-11T03:55:47;31.30;;;17.10;;
705;SDS011;21234;48.690;9.016;2024-01-11T03:58:14;27.73;;;17.87;;
705;SDS011;21234;48.690;9.016;2024-01-11T04:00:41;30.83;;;17.30;;
705;SDS011;21234;48.690;9.016;2024-01-11T04:03:08;24.30;;;16.07;;
705;SDS011;21234;48.690;9.016;2024-01-11T04:05:34;22.47;;;15.90;;
705;SDS011;21234;48.690;9.016;2024-01-11T04:08:04;33.57;;;17.13;;
705;SDS011;21234;48.690;9.016;2024-01-11T04:10:31;28.07;;;17.80;;
705;SDS011;21234;48.690;9.016;2024-01-11T04:12:58;32.70;;;18.27;;
705;SDS011;21234;48.690;9.016;2024-01-11T04:15:25;35.37;;;18.00;;
705;SDS011;21234;48.690;9.016;2024-01-11T04:17:52;35.60;;;18.80;;
705;SDS011;21234;48.690;9.016;2024-01-11T04:20:18;33.07;;;18.77;;
705;SDS011;21234;48.690;9.016;2024-01-11T04:22:45;37.50;;;18.97;;
705;SDS011;21234;48.690;9.016;2024-01-11T04:25:13;39.93;;;18.33;;
705;SDS011;21234;48.690;9.016;2024-01-11T04:27:40;30.53;;;17.57;;
705;SDS011;21234;48.690;9.016;2024-01-11T04:30:07;29.97;;;17.80;;
705;SDS011;21234;48.690;9.016;2024-01-11T04:32:34;34.63;;;17.77;;
705;SDS011;21234;48.690;9.016;2024-01-11T04:35:01;26.83;;;17.17;;
705;SDS011;21234;48.690;9.016;2024-01-11T04:37:27;34.30;;;18.63;;
705;SDS011;21234;48.690;9.016;2024-01-11T04:39:54;23.07;;;15.67;;
705;SDS011;21234;48.690;9.016;2024-01-11T04:42:26;22.23;;;15.60;;
705;SDS011;21234;48.690;9.016;2024-01-11T04:44:53;31.40;;;16.47;;
705;SDS011;21234;48.690;9.016;2024-01-11T04:47:20;31.80;;;17.07;;
705;SDS011;21234;48.690;9.016;2024-01-11T04:49:46;27.97;;;17.63;;
705;SDS011;21234;48.690;9.016;2024-01-11T04:52:13;27.50;;;17.43;;
705;SDS011;21234;48.690;9.016;2024-01-11T04:54:40;32.87;;;18.33;;
705;SDS011;21234;48.690;9.016;2024-01-11T04:57:06;42.77;;;19.83;;
705;SDS011;21234;48.690;9.016;2024-01-11T04:59:34;25.77;;;15.93;;
705;SDS011;21234;48.690;9.016;2024-01-11T05:02:01;35.73;;;16.80;;
705;SDS011;21234;48.690;9.016;2024-01-11T05:04:28;25.83;;;16.13;;
705;SDS011;21234;48.690;9.016;2024-01-11T05:06:55;25.00;;;16.10;;
705;SDS011;21234;48.690;9.016;2024-01-11T05:09:21;22.13;;;15.57;;
705;SDS011;21234;48.690;9.016;2024-01-11T05:11:48;31.30;;;17.30;;
705;SDS011;21234;48.690;9.016;2024-01-11T05:14:15;30.03;;;17.47;;
705;SDS011;21234;48.690;9.016;2024-01-11T05:16:43;38.30;;;18.73;;
705;SDS011;21234;48.690;9.016;2024-01-11T05:19:11;27.60;;;16.07;;
705;SDS011;21234;48.690;9.016;2024-01-11T05:21:38;32.37;;;17.53;;
705;SDS011;21234;48.690;9.016;2024-01-11T05:24:06;36.23;;;18.87;;
705;SDS011;21234;48.690;9.016;2024-01-11T05:26:33;34.33;;;17.00;;
705;SDS011;21234;48.690;9.016;2024-01-11T05:28:59;28.23;;;15.67;;
705;SDS011;21234;48.690;9.016;2024-01-11T05:31:29;30.97;;;16.30;;
705;SDS011;21234;48.690;9.016;2024-01-11T05:33:57;34.73;;;18.20;;
705;SDS011;21234;48.690;9.016;2024-01-11T05:36:24;26.03;;;17.63;;
705;SDS011;21234;48.690;9.016;2024-01-11T05:38:50;35.13;;;19.03;;
705;SDS011;21234;48.690;9.016;2024-01-11T05:41:17;27.70;;;15.57;;
705;SDS011;21234;48.690;9.016;2024-01-11T05:43:44;29.57;;;16.37;;
705;SDS011;21234;48.690;9.016;2024-01-11T05:46:10;30.90;;;15.90;;
705;SDS011;21234;48.690;9.016;2024-01-11T05:48:37;38.73;;;17.50;;
705;SDS011;21234;48.690;9.016;2024-01-11T05:51:06;33.57;;;16.07;;
705;SDS011;21234;48.690;9.016;2024-01-11T05:53:35;32.57;;;17.63;;
705;SDS011;21234;48.690;9.016;2024-01-11T05:56:02;36.23;;;19.67;;
705;SDS011;21234;48.690;9.016;2024-01-11T05:58:33;32.00;;;18.27;;
705;SDS011;21234;48.690;9.016;2024-01-11T06:01:01;29.90;;;17.77;;
705;SDS011;21234;48.690;9.016;2024-01-11T06:03:29;35.80;;;15.90;;
705;SDS011;21234;48.690;9.016;2024-01-11T06:06:00;31.67;;;17.93;;
705;SDS011;21234;48.690;9.016;2024-01-11T06:08:30;32.43;;;15.80;;
705;SDS011;21234;48.690;9.016;2024-01-11T06:10:58;36.53;;;19.13;;
705;SDS011;21234;48.690;9.016;2024-01-11T06:13:27;50.60;;;19.83;;
705;SDS011;21234;48.690;9.016;2024-01-11T06:15:55;41.93;;;21.10;;
705;SDS011;21234;48.690;9.016;2024-01-11T06:18:22;37.67;;;21.27;;
705;SDS011;21234;48.690;9.016;2024-01-11T06:20:51;39.60;;;22.30;;
705;SDS011;21234;48.690;9.016;2024-01-11T06:23:18;31.57;;;18.70;;
705;SDS011;21234;48.690;9.016;2024-01-11T06:25:47;33.97;;;19.83;;
705;SDS011;21234;48.690;9.016;2024-01-11T06:28:14;36.37;;;19.60;;
705;SDS011;21234;48.690;9.016;2024-01-11T06:30:40;26.93;;;17.60;;
705;SDS011;21234;48.690;9.016;2024-01-11T06:33:08;29.23;;;18.20;;
705;SDS011;21234;48.690;9.016;2024-01-11T06:35:35;36.57;;;18.50;;
705;SDS011;21234;48.690;9.016;2024-01-11T06:38:02;28.77;;;18.00;;
705;SDS011;21234;48.690;9.016;2024-01-11T06:40:28;26.07;;;15.20;;
705;SDS011;21234;48.690;9.016;2024-01-11T06:42:56;34.80;;;18.50;;
705;SDS011;21234;48.690;9.016;2024-01-11T06:45:23;25.53;;;16.60;;
705;SDS011;21234;48.690;9.016;2024-01-11T06:47:50;30.20;;;17.47;;
705;SDS011;21234;48.690;9.016;2024-01-11T06:50:17;33.97;;;18.57;;
705;SDS011;21234;48.690;9.016;2024-01-11T06:52:43;38.67;;;18.10;;
705;SDS011;21234;48.690;9.016;2024-01-11T06:55:10;32.23;;;18.37;;
705;SDS011;21234;48.690;9.016;2024-01-11T06:57:37;35.20;;;19.47;;
705;SDS011;21234;48.690;9.016;2024-01-11T07:00:06;27.07;;;17.33;;
705;SDS011;21234;48.690;9.016;2024-01-11T07:02:33;28.13;;;15.63;;
705;SDS011;21234;48.690;9.016;2024-01-11T07:05:00;32.53;;;16.23;;
705;SDS011;21234;48.690;9.016;2024-01-11T07:07:27;31.80;;;18.90;;
705;SDS011;21234;48.690;9.016;2024-01-11T07:09:53;34.50;;;19.50;;
705;SDS011;21234;48.690;9.016;2024-01-11T07:12:20;21.70;;;16.10;;
705;SDS011;21234;48.690;9.016;2024-01-11T07:14:47;36.70;;;18.07;;
705;SDS011;21234;48.690;9.016;2024-01-11T07:17:15;33.13;;;17.07;;
705;SDS011;21234;48.690;9.016;2024-01-11T07:19:42;38.93;;;20.37;;
705;SDS011;21234;48.690;9.016;2024-01-11T07:22:09;36.73;;;18.67;;
705;SDS011;21234;48.690;9.016;2024-01-11T07:24:36;33.53;;;18.57;;
705;SDS011;21234;48.690;9.016;2024-01-11T07:27:03;41.63;;;19.77;;
705;SDS011;21234;48.690;9.016;2024-01-11T07:29:30;32.70;;;18.30;;
705;SDS011;21234;48.690;9.016;2024-01-11T07:31:58;43.53;;;22.17;;
705;SDS011;21234;48.690;9.016;2024-01-11T07:34:26;30.73;;;18.87;;
705;SDS011;21234;48.690;9.016;2024-01-11T07:36:53;36.23;;;18.80;;
705;SDS011;21234;48.690;9.016;2024-01-11T07:39:20;33.43;;;19.43;;
705;SDS011;21234;48.690;9.016;2024-01-11T07:41:47;42.67;;;21.20;;
705;SDS011;21234;48.690;9.016;2024-01-11T07:44:14;31.83;;;18.20;;
705;SDS011;21234;48.690;9.016;2024-01-11T07:46:41;33.80;;;19.33;;
705;SDS011;21234;48.690;9.016;2024-01-11T07:49:08;58.23;;;31.93;;
705;SDS011;21234;48.690;9.016;2024-01-11T07:51:36;73.77;;;34.87;;
705;SDS011;21234;48.690;9.016;2024-01-11T07:54:04;46.77;;;27.57;;
705;SDS011;21234;48.690;9.016;2024-01-11T07:56:31;47.13;;;26.70;;
705;SDS011;21234;48.690;9.016;2024-01-11T07:58:57;55.43;;;25.97;;
705;SDS011;21234;48.690;9.016;2024-01-11T08:01:24;43.37;;;23.77;;
705;SDS011;21234;48.690;9.016;2024-01-11T08:03:51;33.83;;;21.83;;
705;SDS011;21234;48.690;9.016;2024-01-11T08:06:18;35.83;;;19.13;;
705;SDS011;21234;48.690;9.016;2024-01-11T08:08:46;35.40;;;17.90;;
705;SDS011;21234;48.690;9.016;2024-01-11T08:11:16;35.73;;;18.73;;
705;SDS011;21234;48.690;9.016;2024-01-11T08:13:43;30.00;;;19.67;;
705;SDS011;21234;48.690;9.016;2024-01-11T08:16:14;40.03;;;18.73;;
705;SDS011;21234;48.690;9.016;2024-01-11T08:18:42;30.73;;;17.90;;
705;SDS011;21234;48.690;9.016;2024-01-11T08:21:09;34.33;;;19.90;;
705;SDS011;21234;48.690;9.016;2024-01-11T08:23:36;40.93;;;21.03;;
705;SDS011;21234;48.690;9.016;2024-01-11T08:26:07;34.60;;;19.80;;
705;SDS011;21234;48.690;9.016;2024-01-11T08:28:33;36.57;;;20.50;;
705;SDS011;21234;48.690;9.016;2024-01-11T08:31:00;34.73;;;20.20;;
705;SDS011;21234;48.690;9.016;2024-01-11T08:33:29;34.37;;;20.57;;
705;SDS011;21234;48.690;9.016;2024-01-11T08:35:56;28.57;;;18.50;;
705;SDS011;21234;48.690;9.016;2024-01-11T08:38:24;27.20;;;16.87;;
705;SDS011;21234;48.690;9.016;2024-01-11T08:40:50;39.30;;;22.87;;
705;SDS011;21234;48.690;9.016;2024-01-11T08:43:19;39.03;;;22.87;;
705;SDS011;21234;48.690;9.016;2024-01-11T08:45:45;47.67;;;21.27;;
705;SDS011;21234;48.690;9.016;2024-01-11T08:48:13;44.30;;;24.80;;
705;SDS011;21234;48.690;9.016;2024-01-11T08:50:40;42.67;;;22.00;;
705;SDS011;21234;48.690;9.016;2024-01-11T08:53:07;39.20;;;21.90;;
705;SDS011;21234;48.690;9.016;2024-01-11T08:55:33;33.70;;;19.13;;
705;SDS011;21234;48.690;9.016;2024-01-11T08:58:00;28.17;;;18.10;;
705;SDS011;21234;48.690;9.016;2024-01-11T09:00:28;40.07;;;21.50;;
705;SDS011;21234;48.690;9.016;2024-01-11T09:02:55;34.17;;;21.43;;
705;SDS011;21234;48.690;9.016;2024-01-11T09:05:22;41.20;;;23.07;;
705;SDS011;21234;48.690;9.016;2024-01-11T09:07:48;36.87;;;23.50;;
705;SDS011;21234;48.690;9.016;2024-01-11T09:10:15;37.60;;;19.97;;
705;SDS011;21234;48.690;9.016;2024-01-11T09:12:42;45.57;;;22.20;;
705;SDS011;21234;48.690;9.016;2024-01-11T09:15:09;37.27;;;21.50;;
705;SDS011;21234;48.690;9.016;2024-01-11T09:17:37;39.97;;;20.57;;
705;SDS011;21234;48.690;9.016;2024-01-11T09:20:05;31.37;;;21.43;;
705;SDS011;21234;48.690;9.016;2024-01-11T09:22:32;43.83;;;23.53;;
705;SDS011;21234;48.690;9.016;2024-01-11T09:24:58;45.33;;;25.83;;
705;SDS011;21234;48.690;9.016;2024-01-11T09:27:25;36.77;;;23.20;;
705;SDS011;21234;48.690;9.016;2024-01-11T09:29:52;42.33;;;21.93;;
705;SDS011;21234;48.690;9.016;2024-01-11T09:32:18;52.93;;;23.20;;
705;SDS011;21234;48.690;9.016;2024-01-11T09:34:46;35.90;;;21.47;;
705;SDS011;21234;48.690;9.016;2024-01-11T09:37:14;38.40;;;21.43;;
705;SDS011;21234;48.690;9.016;2024-01-11T09:39:41;32.37;;;19.50;;
705;SDS011;21234;48.690;9.016;2024-01-11T09:42:08;37.90;;;22.60;;
705;SDS011;21234;48.690;9.016;2024-01-11T09:44:36;40.23;;;22.90;;
705;SDS011;21234;48.690;9.016;2024-01-11T09:47:03;39.93;;;21.30;;
705;SDS011;21234;48.690;9.016;2024-01-11T09:49:32;36.27;;;23.07;;
705;SDS011;21234;48.690;9.016;2024-01-11T09:52:01;41.47;;;22.10;;
705;SDS011;21234;48.690;9.016;2024-01-11T09:54:28;35.47;;;21.20;;
705;SDS011;21234;48.690;9.016;2024-01-11T09:56:56;35.17;;;21.53;;
705;SDS011;21234;48.690;9.016;2024-01-11T09:59:25;34.53;;;22.00;;
705;SDS011;21234;48.690;9.016;2024-01-11T10:01:52;42.20;;;24.43;;
705;SDS011;21234;48.690;9.016;2024-01-11T10:04:19;38.70;;;24.63;;
705;SDS011;21234;48.690;9.016;2024-01-11T10:06:46;39.53;;;23.63;;
705;SDS011;21234;48.690;9.016;2024-01-11T10:09:17;44.47;;;22.93;;
705;SDS011;21234;48.690;9.016;2024-01-11T10:11:44;36.20;;;23.40;;
705;SDS011;21234;48.690;9.016;2024-01-11T10:14:11;41.20;;;25.13;;
705;SDS011;21234;48.690;9.016;2024-01-11T10:16:38;43.30;;;25.10;;
705;SDS011;21234;48.690;9.016;2024-01-11T10:19:07;40.37;;;22.87;;
705;SDS011;21234;48.690;9.016;2024-01-11T10:21:37;50.83;;;27.67;;
705;SDS011;21234;48.690;9.016;2024-01-11T10:24:04;42.13;;;24.73;;
705;SDS011;21234;48.690;9.016;2024-01-11T10:26:33;47.70;;;25.60;;
705;SDS011;21234;48.690;9.016;2024-01-11T10:29:00;44.00;;;23.23;;
705;SDS011;21234;48.690;9.016;2024-01-11T10:31:28;37.97;;;23.00;;
705;SDS011;21234;48.690;9.016;2024-01-11T10:33:55;40.60;;;24.70;;
705;SDS011;21234;48.690;9.016;2024-01-11T10:36:22;37.03;;;22.97;;
705;SDS011;21234;48.690;9.016;2024-01-11T10:38:49;39.40;;;22.37;;
705;SDS011;21234;48.690;9.016;2024-01-11T10:41:17;36.20;;;23.60;;
705;SDS011;21234;48.690;9.016;2024-01-11T10:43:47;42.37;;;23.20;;
705;SDS011;21234;48.690;9.016;2024-01-11T10:46:15;39.63;;;24.13;;
705;SDS011;21234;48.690;9.016;2024-01-11T10:48:45;38.77;;;22.33;;
705;SDS011;21234;48.690;9.016;2024-01-11T10:51:15;46.10;;;23.33;;
705;SDS011;21234;48.690;9.016;2024-01-11T10:53:47;35.60;;;21.83;;
705;SDS011;21234;48.690;9.016;2024-01-11T10:56:16;38.47;;;23.67;;
705;SDS011;21234;48.690;9.016;2024-01-11T10:58:43;49.07;;;24.53;;
705;SDS011;21234;48.690;9.016;2024-01-11T11:01:13;40.47;;;24.37;;
705;SDS011;21234;48.690;9.016;2024-01-11T11:03:40;41.47;;;23.50;;
705;SDS011;21234;48.690;9.016;2024-01-11T11:06:09;36.77;;;22.10;;
705;SDS011;21234;48.690;9.016;2024-01-11T11:08:37;42.03;;;24.13;;
705;SDS011;21234;48.690;9.016;2024-01-11T11:11:05;40.97;;;24.40;;
705;SDS011;21234;48.690;9.016;2024-01-11T11:13:33;31.13;;;21.50;;
705;SDS011;21234;48.690;9.016;2024-01-11T11:16:00;38.67;;;24.17;;
705;SDS011;21234;48.690;9.016;2024-01-11T11:18:30;37.73;;;24.10;;
705;SDS011;21234;48.690;9.016;2024-01-11T11:21:00;37.20;;;21.70;;
705;SDS011;21234;48.690;9.016;2024-01-11T11:23:27;33.10;;;21.97;;
705;SDS011;21234;48.690;9.016;2024-01-11T11:25:54;33.13;;;21.90;;
705;SDS011;21234;48.690;9.016;2024-01-11T11:28:22;35.73;;;21.60;;
705;SDS011;21234;48.690;9.016;2024-01-11T11:30:49;44.77;;;23.53;;
705;SDS011;21234;48.690;9.016;2024-01-11T11:33:19;36.57;;;22.20;;
705;SDS011;21234;48.690;9.016;2024-01-11T11:35:48;41.10;;;22.67;;
705;SDS011;21234;48.690;9.016;2024-01-11T11:38:20;39.43;;;23.63;;
705;SDS011;21234;48.690;9.016;2024-01-11T11:40:48;37.63;;;22.27;;
705;SDS011;21234;48.690;9.016;2024-01-11T11:43:17;36.70;;;22.53;;
705;SDS011;21234;48.690;9.016;2024-01-11T11:45:45;34.30;;;20.17;;
705;SDS011;21234;48.690;9.016;2024-01-11T11:51:19;37.80;;;21.30;;
705;SDS011;21234;48.690;9.016;2024-01-11T11:53:47;31.00;;;19.93;;
705;SDS011;21234;48.690;9.016;2024-01-11T11:56:15;39.50;;;22.13;;
705;SDS011;21234;48.690;9.016;2024-01-11T11:58:43;32.40;;;19.97;;
705;SDS011;21234;48.690;9.016;2024-01-11T12:01:11;31.77;;;18.67;;
705;SDS011;21234;48.690;9.016;2024-01-11T12:03:40;41.20;;;19.87;;
705;SDS011;21234;48.690;9.016;2024-01-11T12:06:13;27.43;;;19.70;;
705;SDS011;21234;48.690;9.016;2024-01-11T12:08:42;31.70;;;20.73;;
705;SDS011;21234;48.690;9.016;2024-01-11T12:11:12;32.43;;;20.90;;
705;SDS011;21234;48.690;9.016;2024-01-11T12:13:39;33.00;;;18.90;;
705;SDS011;21234;48.690;9.016;2024-01-11T12:16:07;31.37;;;18.03;;
705;SDS011;21234;48.690;9.016;2024-01-11T12:18:33;30.80;;;20.50;;
705;SDS011;21234;48.690;9.016;2024-01-11T12:21:00;31.33;;;19.00;;
705;SDS011;21234;48.690;9.016;2024-01-11T12:23:27;33.80;;;18.07;;
705;SDS011;21234;48.690;9.016;2024-01-11T12:25:57;28.37;;;17.67;;
705;SDS011;21234;48.690;9.016;2024-01-11T12:28:24;28.60;;;19.10;;
705;SDS011;21234;48.690;9.016;2024-01-11T12:30:51;30.13;;;17.60;;
705;SDS011;21234;48.690;9.016;2024-01-11T12:33:18;28.77;;;19.33;;
705;SDS011;21234;48.690;9.016;2024-01-11T12:35:46;29.27;;;19.30;;
705;SDS011;21234;48.690;9.016;2024-01-11T12:38:12;28.03;;;18.70;;
705;SDS011;21234;48.690;9.016;2024-01-11T12:40:40;30.87;;;18.77;;
705;SDS011;21234;48.690;9.016;2024-01-11T12:43:08;29.13;;;17.27;;
705;SDS011;21234;48.690;9.016;2024-01-11T12:45:37;29.53;;;18.83;;
705;SDS011;21234;48.690;9.016;2024-01-11T12:48:07;30.67;;;18.60;;
705;SDS011;21234;48.690;9.016;2024-01-11T12:50:42;27.83;;;18.80;;
705;SDS011;21234;48.690;9.016;2024-01-11T12:53:11;35.33;;;20.37;;
705;SDS011;21234;48.690;9.016;2024-01-11T12:55:43;35.20;;;18.83;;
705;SDS011;21234;48.690;9.016;2024-01-11T12:58:11;34.90;;;21.47;;
705;SDS011;21234;48.690;9.016;2024-01-11T13:00:39;43.20;;;23.37;;
705;SDS011;21234;48.690;9.016;2024-01-11T13:03:06;37.27;;;21.67;;
705;SDS011;21234;48.690;9.016;2024-01-11T13:05:32;43.43;;;24.10;;
705;SDS011;21234;48.690;9.016;2024-01-11T13:08:01;35.53;;;20.70;;
705;SDS011;21234;48.690;9.016;2024-01-11T13:10:29;33.00;;;19.93;;
705;SDS011;21234;48.690;9.016;2024-01-11T13:12:58;33.37;;;21.40;;
705;SDS011;21234;48.690;9.016;2024-01-11T13:15:27;34.87;;;19.27;;
705;SDS011;21234;48.690;9.016;2024-01-11T13:17:54;36.17;;;24.40;;
705;SDS011;21234;48.690;9.016;2024-01-11T13:20:21;30.97;;;20.10;;
705;SDS011;21234;48.690;9.016;2024-01-11T13:22:47;30.87;;;19.97;;
705;SDS011;21234;48.690;9.016;2024-01-11T13:25:14;33.60;;;21.87;;
705;SDS011;21234;48.690;9.016;2024-01-11T13:27:41;43.17;;;22.60;;
705;SDS011;21234;48.690;9.016;2024-01-11T13:30:08;36.00;;;20.67;;
705;SDS011;21234;48.690;9.016;2024-01-11T13:32:36;36.10;;;22.97;;
705;SDS011;21234;48.690;9.016;2024-01-11T13:35:03;41.10;;;22.37;;
705;SDS011;21234;48.690;9.016;2024-01-11T13:37:31;34.23;;;21.87;;
705;SDS011;21234;48.690;9.016;2024-01-11T13:39:58;35.40;;;20.50;;
705;SDS011;21234;48.690;9.016;2024-01-11T13:42:26;36.17;;;20.60;;
705;SDS011;21234;48.690;9.016;2024-01-11T13:44:57;36.70;;;20.97;;
705;SDS011;21234;48.690;9.016;2024-01-11T13:47:26;33.83;;;19.63;;
705;SDS011;21234;48.690;9.016;2024-01-11T13:49:54;28.03;;;19.13;;
705;SDS011;21234;48.690;9.016;2024-01-11T13:52:23;33.97;;;21.70;;
705;SDS011;21234;48.690;9.016;2024-01-11T13:54:51;33.37;;;22.00;;
705;SDS011;21234;48.690;9.016;2024-01-11T13:57:20;33.63;;;21.20;;
705;SDS011;21234;48.690;9.016;2024-01-11T13:59:47;37.93;;;23.50;;
705;SDS011;21234;48.690;9.016;2024-01-11T14:02:14;28.57;;;19.33;;
705;SDS011;21234;48.690;9.016;2024-01-11T14:04:41;34.00;;;20.63;;
705;SDS011;21234;48.690;9.016;2024-01-11T14:07:09;29.00;;;20.30;;
705;SDS011;21234;48.690;9.016;2024-01-11T14:09:36;31.13;;;21.60;;
705;SDS011;21234;48.690;9.016;2024-01-11T14:12:04;36.33;;;22.70;;
705;SDS011;21234;48.690;9.016;2024-01-11T14:14:31;32.17;;;22.67;;
705;SDS011;21234;48.690;9.016;2024-01-11T14:16:58;28.50;;;19.80;;
705;SDS011;21234;48.690;9.016;2024-01-11T14:19:25;38.33;;;24.27;;
705;SDS011;21234;48.690;9.016;2024-01-11T14:21:53;34.47;;;22.97;;
705;SDS011;21234;48.690;9.016;2024-01-11T14:24:21;33.50;;;21.73;;
705;SDS011;21234;48.690;9.016;2024-01-11T14:26:48;32.33;;;22.07;;
705;SDS011;21234;48.690;9.016;2024-01-11T14:29:14;34.37;;;22.30;;
705;SDS011;21234;48.690;9.016;2024-01-11T14:31:41;34.57;;;22.70;;
705;SDS011;21234;48.690;9.016;2024-01-11T14:34:08;38.57;;;25.03;;
705;SDS011;21234;48.690;9.016;2024-01-11T14:36:35;37.80;;;24.40;;
705;SDS011;21234;48.690;9.016;2024-01-11T14:39:02;34.43;;;21.87;;
705;SDS011;21234;48.690;9.016;2024-01-11T14:41:30;39.17;;;23.33;;
705;SDS011;21234;48.690;9.016;2024-01-11T14:43:57;41.33;;;25.50;;
705;SDS011;21234;48.690;9.016;2024-01-11T14:46:28;38.60;;;23.97;;
705;SDS011;21234;48.690;9.016;2024-01-11T14:48:55;45.67;;;25.73;;
705;SDS011;21234;48.690;9.016;2024-01-11T14:51:21;45.57;;;26.37;;